sensor_id;sensor_type;location;lat;lon;timestamp;P1;durP1;ratioP1;P2;durP2;ratioP2
38785;SDS011;24535;45.508;12.252;2022-08-05T00:00:30;2.53;;;2.28;;
38785;SDS011;24535;45.508;12.252;2022-08-05T00:02:55;5.60;;;2.40;;
38785;SDS011;24535;45.508;12.252;2022-08-05T00:05:20;6.55;;;1.85;;
38785;SDS011;24535;45.508;12.252;2022-08-05T00:07:47;2.72;;;2.20;;
38785;SDS011;24535;45.508;12.252;2022-08-05T00:10:12;4.43;;;2.40;;
38785;SDS011;24535;45.508;12.252;2022-08-05T00:12:37;2.92;;;2.60;;
38785;SDS011;24535;45.508;12.252;2022-08-05T00:15:03;5.43;;;2.47;;
38785;SDS011;24535;45.508;12.252;2022-08-05T00:17:30;8.93;;;2.92;;
38785;SDS011;24535;45.508;12.252;2022-08-05T00:26:18;3.42;;;2.05;;
38785;SDS011;24535;45.508;12.252;2022-08-05T00:28:52;5.00;;;2.53;;
38785;SDS011;24535;45.508;12.252;2022-08-05T00:31:18;3.60;;;2.85;;
38785;SDS011;24535;45.508;12.252;2022-08-05T00:33:43;2.55;;;2.05;;
38785;SDS011;24535;45.508;12.252;2022-08-05T00:36:14;6.43;;;2.97;;
38785;SDS011;24535;45.508;12.252;2022-08-05T00:38:42;3.22;;;2.28;;
38785;SDS011;24535;45.508;12.252;2022-08-05T00:41:08;4.45;;;2.17;;
38785;SDS011;24535;45.508;12.252;2022-08-05T00:43:41;5.25;;;2.58;;
38785;SDS011;24535;45.508;12.252;2022-08-05T00:46:06;5.72;;;2.65;;
38785;SDS011;24535;45.508;12.252;2022-08-05T00:48:39;4.57;;;3.10;;
38785;SDS011;24535;45.508;12.252;2022-08-05T00:51:04;4.88;;;2.58;;
38785;SDS011;24535;45.508;12.252;2022-08-05T00:53:30;9.63;;;2.17;;
38785;SDS011;24535;45.508;12.252;2022-08-05T00:55:58;5.03;;;2.30;;
38785;SDS011;24535;45.508;12.252;2022-08-05T00:58:24;7.45;;;2.60;;
38785;SDS011;24535;45.508;12.252;2022-08-05T01:00:49;3.45;;;2.53;;
38785;SDS011;24535;45.508;12.252;2022-08-05T01:03:14;4.05;;;2.53;;
38785;SDS011;24535;45.508;12.252;2022-08-05T01:05:40;3.70;;;2.00;;
38785;SDS011;24535;45.508;12.252;2022-08-05T01:08:06;6.63;;;3.03;;
38785;SDS011;24535;45.508;12.252;2022-08-05T01:16:24;4.72;;;2.08;;
38785;SDS011;24535;45.508;12.252;2022-08-05T01:18:56;3.47;;;2.15;;
38785;SDS011;24535;45.508;12.252;2022-08-05T01:24:39;2.45;;;2.00;;
38785;SDS011;24535;45.508;12.252;2022-08-05T01:32:44;2.92;;;1.83;;
38785;SDS011;24535;45.508;12.252;2022-08-05T01:35:14;3.50;;;2.63;;
38785;SDS011;24535;45.508;12.252;2022-08-05T01:37:46;2.55;;;2.20;;
38785;SDS011;24535;45.508;12.252;2022-08-05T01:40:21;3.67;;;1.88;;
38785;SDS011;24535;45.508;12.252;2022-08-05T01:42:50;2.38;;;1.83;;
38785;SDS011;24535;45.508;12.252;2022-08-05T01:45:18;2.60;;;2.13;;
38785;SDS011;24535;45.508;12.252;2022-08-05T01:47:46;3.88;;;2.50;;
38785;SDS011;24535;45.508;12.252;2022-08-05T01:50:15;3.45;;;2.40;;
38785;SDS011;24535;45.508;12.252;2022-08-05T01:52:49;7.68;;;2.55;;
38785;SDS011;24535;45.508;12.252;2022-08-05T01:55:19;4.55;;;2.40;;
38785;SDS011;24535;45.508;12.252;2022-08-05T02:00:13;5.75;;;2.60;;
38785;SDS011;24535;45.508;12.252;2022-08-05T02:02:44;2.78;;;2.15;;
38785;SDS011;24535;45.508;12.252;2022-08-05T02:05:16;5.78;;;2.45;;
38785;SDS011;24535;45.508;12.252;2022-08-05T02:07:44;3.47;;;2.55;;
38785;SDS011;24535;45.508;12.252;2022-08-05T02:10:09;4.10;;;2.60;;
38785;SDS011;24535;45.508;12.252;2022-08-05T02:12:54;3.05;;;2.72;;
38785;SDS011;24535;45.508;12.252;2022-08-05T02:15:33;3.83;;;2.42;;
38785;SDS011;24535;45.508;12.252;2022-08-05T02:18:19;6.03;;;2.40;;
38785;SDS011;24535;45.508;12.252;2022-08-05T02:21:08;8.10;;;2.47;;
38785;SDS011;24535;45.508;12.252;2022-08-05T02:29:02;3.90;;;2.90;;
38785;SDS011;24535;45.508;12.252;2022-08-05T02:31:28;5.03;;;2.85;;
38785;SDS011;24535;45.508;12.252;2022-08-05T02:34:02;5.75;;;2.85;;
38785;SDS011;24535;45.508;12.252;2022-08-05T02:36:31;5.32;;;2.95;;
38785;SDS011;24535;45.508;12.252;2022-08-05T02:38:59;3.72;;;2.83;;
38785;SDS011;24535;45.508;12.252;2022-08-05T02:44:07;5.65;;;3.42;;
38785;SDS011;24535;45.508;12.252;2022-08-05T02:46:35;6.25;;;3.53;;
38785;SDS011;24535;45.508;12.252;2022-08-05T02:49:07;3.67;;;2.90;;
38785;SDS011;24535;45.508;12.252;2022-08-05T02:51:36;4.80;;;3.20;;
38785;SDS011;24535;45.508;12.252;2022-08-05T02:54:09;3.22;;;2.65;;
38785;SDS011;24535;45.508;12.252;2022-08-05T02:56:35;4.43;;;3.08;;
38785;SDS011;24535;45.508;12.252;2022-08-05T02:59:05;4.63;;;2.75;;
38785;SDS011;24535;45.508;12.252;2022-08-05T03:01:35;5.60;;;3.15;;
38785;SDS011;24535;45.508;12.252;2022-08-05T03:04:07;4.90;;;3.30;;
38785;SDS011;24535;45.508;12.252;2022-08-05T03:06:37;3.85;;;2.97;;
38785;SDS011;24535;45.508;12.252;2022-08-05T03:09:14;4.75;;;3.05;;
38785;SDS011;24535;45.508;12.252;2022-08-05T03:11:41;5.18;;;3.22;;
38785;SDS011;24535;45.508;12.252;2022-08-05T03:14:13;4.05;;;3.22;;
38785;SDS011;24535;45.508;12.252;2022-08-05T03:16:42;3.30;;;3.00;;
38785;SDS011;24535;45.508;12.252;2022-08-05T03:19:07;9.60;;;3.63;;
38785;SDS011;24535;45.508;12.252;2022-08-05T03:21:36;3.95;;;3.50;;
38785;SDS011;24535;45.508;12.252;2022-08-05T03:24:01;5.37;;;4.03;;
38785;SDS011;24535;45.508;12.252;2022-08-05T03:26:27;4.32;;;3.45;;
38785;SDS011;24535;45.508;12.252;2022-08-05T03:28:53;6.80;;;3.88;;
38785;SDS011;24535;45.508;12.252;2022-08-05T03:31:19;4.75;;;3.55;;
38785;SDS011;24535;45.508;12.252;2022-08-05T03:33:45;5.13;;;3.28;;
38785;SDS011;24535;45.508;12.252;2022-08-05T03:36:10;4.35;;;3.10;;
38785;SDS011;24535;45.508;12.252;2022-08-05T03:38:48;6.45;;;3.78;;
38785;SDS011;24535;45.508;12.252;2022-08-05T03:41:14;4.18;;;3.38;;
38785;SDS011;24535;45.508;12.252;2022-08-05T03:46:06;4.30;;;3.40;;
38785;SDS011;24535;45.508;12.252;2022-08-05T03:48:37;4.05;;;3.65;;
38785;SDS011;24535;45.508;12.252;2022-08-05T03:58:43;3.80;;;3.35;;
38785;SDS011;24535;45.508;12.252;2022-08-05T04:01:13;5.18;;;3.35;;
38785;SDS011;24535;45.508;12.252;2022-08-05T04:03:43;4.13;;;3.83;;
38785;SDS011;24535;45.508;12.252;2022-08-05T04:08:41;9.55;;;4.00;;
38785;SDS011;24535;45.508;12.252;2022-08-05T04:11:07;4.90;;;4.00;;
38785;SDS011;24535;45.508;12.252;2022-08-05T04:13:33;7.43;;;4.63;;
38785;SDS011;24535;45.508;12.252;2022-08-05T04:15:59;3.45;;;3.15;;
38785;SDS011;24535;45.508;12.252;2022-08-05T04:18:24;4.40;;;4.00;;
38785;SDS011;24535;45.508;12.252;2022-08-05T04:20:53;4.43;;;3.85;;
38785;SDS011;24535;45.508;12.252;2022-08-05T04:23:24;3.50;;;3.20;;
38785;SDS011;24535;45.508;12.252;2022-08-05T04:25:51;5.38;;;3.53;;
38785;SDS011;24535;45.508;12.252;2022-08-05T04:28:17;7.45;;;3.72;;
38785;SDS011;24535;45.508;12.252;2022-08-05T04:30:44;5.90;;;3.80;;
38785;SDS011;24535;45.508;12.252;2022-08-05T04:33:09;8.90;;;4.15;;
38785;SDS011;24535;45.508;12.252;2022-08-05T04:35:35;9.77;;;4.43;;
38785;SDS011;24535;45.508;12.252;2022-08-05T04:38:12;6.53;;;4.20;;
38785;SDS011;24535;45.508;12.252;2022-08-05T04:40:38;8.50;;;5.15;;
38785;SDS011;24535;45.508;12.252;2022-08-05T04:43:04;8.95;;;4.75;;
38785;SDS011;24535;45.508;12.252;2022-08-05T04:45:31;9.13;;;5.45;;
38785;SDS011;24535;45.508;12.252;2022-08-05T04:48:06;11.00;;;4.78;;
38785;SDS011;24535;45.508;12.252;2022-08-05T04:50:37;9.00;;;4.85;;
38785;SDS011;24535;45.508;12.252;2022-08-05T04:55:54;5.88;;;5.32;;
38785;SDS011;24535;45.508;12.252;2022-08-05T04:58:19;12.73;;;5.35;;
38785;SDS011;24535;45.508;12.252;2022-08-05T05:00:45;10.93;;;5.50;;
38785;SDS011;24535;45.508;12.252;2022-08-05T05:03:10;6.72;;;5.13;;
38785;SDS011;24535;45.508;12.252;2022-08-05T05:05:36;7.68;;;5.28;;
38785;SDS011;24535;45.508;12.252;2022-08-05T05:08:03;11.77;;;5.90;;
38785;SDS011;24535;45.508;12.252;2022-08-05T05:10:30;8.68;;;6.57;;
38785;SDS011;24535;45.508;12.252;2022-08-05T05:13:01;9.93;;;6.68;;
38785;SDS011;24535;45.508;12.252;2022-08-05T05:15:27;8.15;;;6.60;;
38785;SDS011;24535;45.508;12.252;2022-08-05T05:17:52;8.23;;;6.50;;
38785;SDS011;24535;45.508;12.252;2022-08-05T05:23:39;8.35;;;6.55;;
38785;SDS011;24535;45.508;12.252;2022-08-05T05:26:07;9.05;;;6.30;;
38785;SDS011;24535;45.508;12.252;2022-08-05T05:28:33;7.60;;;5.63;;
38785;SDS011;24535;45.508;12.252;2022-08-05T05:30:59;9.40;;;5.63;;
38785;SDS011;24535;45.508;12.252;2022-08-05T05:33:24;8.80;;;6.80;;
38785;SDS011;24535;45.508;12.252;2022-08-05T05:35:50;7.20;;;6.60;;
38785;SDS011;24535;45.508;12.252;2022-08-05T05:38:15;10.05;;;6.63;;
38785;SDS011;24535;45.508;12.252;2022-08-05T05:40:42;6.60;;;5.80;;
38785;SDS011;24535;45.508;12.252;2022-08-05T05:43:07;5.93;;;5.28;;
38785;SDS011;24535;45.508;12.252;2022-08-05T05:45:34;7.25;;;5.70;;
38785;SDS011;24535;45.508;12.252;2022-08-05T05:47:59;7.30;;;6.38;;
38785;SDS011;24535;45.508;12.252;2022-08-05T05:50:31;8.80;;;5.63;;
38785;SDS011;24535;45.508;12.252;2022-08-05T05:52:58;6.80;;;6.07;;
38785;SDS011;24535;45.508;12.252;2022-08-05T05:55:23;6.05;;;5.45;;
38785;SDS011;24535;45.508;12.252;2022-08-05T05:57:51;7.78;;;6.43;;
38785;SDS011;24535;45.508;12.252;2022-08-05T06:00:20;7.40;;;5.53;;
38785;SDS011;24535;45.508;12.252;2022-08-05T06:02:47;7.75;;;5.38;;
38785;SDS011;24535;45.508;12.252;2022-08-05T06:05:13;9.55;;;5.95;;
38785;SDS011;24535;45.508;12.252;2022-08-05T06:10:24;7.43;;;5.50;;
38785;SDS011;24535;45.508;12.252;2022-08-05T06:15:43;9.70;;;4.93;;
38785;SDS011;24535;45.508;12.252;2022-08-05T06:18:09;5.80;;;4.43;;
38785;SDS011;24535;45.508;12.252;2022-08-05T06:20:39;7.22;;;4.57;;
38785;SDS011;24535;45.508;12.252;2022-08-05T06:23:04;7.45;;;4.90;;
38785;SDS011;24535;45.508;12.252;2022-08-05T06:28:51;5.57;;;4.38;;
38785;SDS011;24535;45.508;12.252;2022-08-05T06:31:16;6.40;;;4.05;;
38785;SDS011;24535;45.508;12.252;2022-08-05T06:33:51;7.95;;;4.88;;
38785;SDS011;24535;45.508;12.252;2022-08-05T06:36:22;5.68;;;4.68;;
38785;SDS011;24535;45.508;12.252;2022-08-05T06:38:49;5.75;;;4.30;;
38785;SDS011;24535;45.508;12.252;2022-08-05T06:41:18;6.13;;;4.00;;
38785;SDS011;24535;45.508;12.252;2022-08-05T06:43:45;4.40;;;3.75;;
38785;SDS011;24535;45.508;12.252;2022-08-05T06:46:10;7.07;;;4.50;;
38785;SDS011;24535;45.508;12.252;2022-08-05T06:48:38;5.15;;;4.03;;
38785;SDS011;24535;45.508;12.252;2022-08-05T06:51:13;10.17;;;4.07;;
38785;SDS011;24535;45.508;12.252;2022-08-05T06:53:48;6.18;;;3.50;;
38785;SDS011;24535;45.508;12.252;2022-08-05T06:56:29;6.07;;;3.42;;
38785;SDS011;24535;45.508;12.252;2022-08-05T06:58:55;4.47;;;2.80;;
38785;SDS011;24535;45.508;12.252;2022-08-05T07:01:21;10.38;;;3.72;;
38785;SDS011;24535;45.508;12.252;2022-08-05T07:03:47;7.53;;;3.50;;
38785;SDS011;24535;45.508;12.252;2022-08-05T07:06:12;8.40;;;2.95;;
38785;SDS011;24535;45.508;12.252;2022-08-05T07:11:53;5.18;;;3.17;;
38785;SDS011;24535;45.508;12.252;2022-08-05T07:14:22;3.88;;;2.90;;
38785;SDS011;24535;45.508;12.252;2022-08-05T07:17:06;3.17;;;2.28;;
38785;SDS011;24535;45.508;12.252;2022-08-05T07:19:41;4.95;;;2.95;;
38785;SDS011;24535;45.508;12.252;2022-08-05T07:22:10;4.30;;;2.95;;
38785;SDS011;24535;45.508;12.252;2022-08-05T07:27:34;3.58;;;2.83;;
38785;SDS011;24535;45.508;12.252;2022-08-05T07:30:00;4.57;;;2.83;;
38785;SDS011;24535;45.508;12.252;2022-08-05T07:32:25;4.90;;;2.63;;
38785;SDS011;24535;45.508;12.252;2022-08-05T07:37:50;2.83;;;2.42;;
38785;SDS011;24535;45.508;12.252;2022-08-05T07:40:18;3.08;;;2.28;;
38785;SDS011;24535;45.508;12.252;2022-08-05T07:42:45;5.50;;;2.45;;
38785;SDS011;24535;45.508;12.252;2022-08-05T07:45:11;4.63;;;2.53;;
38785;SDS011;24535;45.508;12.252;2022-08-05T07:47:37;3.42;;;2.55;;
38785;SDS011;24535;45.508;12.252;2022-08-05T07:50:02;3.53;;;2.28;;
38785;SDS011;24535;45.508;12.252;2022-08-05T07:52:31;3.90;;;2.50;;
38785;SDS011;24535;45.508;12.252;2022-08-05T07:55:06;3.67;;;2.75;;
38785;SDS011;24535;45.508;12.252;2022-08-05T07:57:35;2.92;;;2.30;;
38785;SDS011;24535;45.508;12.252;2022-08-05T08:00:02;2.83;;;1.65;;
38785;SDS011;24535;45.508;12.252;2022-08-05T08:05:18;3.08;;;2.03;;
38785;SDS011;24535;45.508;12.252;2022-08-05T08:07:46;4.18;;;2.05;;
38785;SDS011;24535;45.508;12.252;2022-08-05T08:10:17;2.92;;;2.05;;
38785;SDS011;24535;45.508;12.252;2022-08-05T08:12:42;3.72;;;2.00;;
38785;SDS011;24535;45.508;12.252;2022-08-05T08:15:14;4.93;;;2.03;;
38785;SDS011;24535;45.508;12.252;2022-08-05T08:17:40;3.13;;;1.73;;
38785;SDS011;24535;45.508;12.252;2022-08-05T08:20:06;2.67;;;2.00;;
38785;SDS011;24535;45.508;12.252;2022-08-05T08:22:31;3.95;;;2.30;;
38785;SDS011;24535;45.508;12.252;2022-08-05T08:24:57;2.20;;;1.77;;
38785;SDS011;24535;45.508;12.252;2022-08-05T08:27:24;4.55;;;2.30;;
38785;SDS011;24535;45.508;12.252;2022-08-05T08:29:49;3.42;;;1.98;;
38785;SDS011;24535;45.508;12.252;2022-08-05T08:32:14;4.47;;;2.63;;
38785;SDS011;24535;45.508;12.252;2022-08-05T08:34:40;1.90;;;1.52;;
38785;SDS011;24535;45.508;12.252;2022-08-05T08:40:29;2.28;;;1.40;;
38785;SDS011;24535;45.508;12.252;2022-08-05T08:42:59;1.55;;;1.25;;
38785;SDS011;24535;45.508;12.252;2022-08-05T08:45:26;2.75;;;1.27;;
38785;SDS011;24535;45.508;12.252;2022-08-05T08:47:52;1.20;;;1.10;;
38785;SDS011;24535;45.508;12.252;2022-08-05T08:50:19;1.85;;;1.20;;
38785;SDS011;24535;45.508;12.252;2022-08-05T08:52:48;3.55;;;1.40;;
38785;SDS011;24535;45.508;12.252;2022-08-05T08:55:16;1.13;;;1.02;;
38785;SDS011;24535;45.508;12.252;2022-08-05T08:57:49;3.22;;;1.42;;
38785;SDS011;24535;45.508;12.252;2022-08-05T09:00:15;2.20;;;1.10;;
38785;SDS011;24535;45.508;12.252;2022-08-05T09:02:41;4.22;;;1.13;;
38785;SDS011;24535;45.508;12.252;2022-08-05T09:05:09;2.05;;;1.35;;
38785;SDS011;24535;45.508;12.252;2022-08-05T09:07:38;2.88;;;1.40;;
38785;SDS011;24535;45.508;12.252;2022-08-05T09:13:18;2.20;;;1.48;;
38785;SDS011;24535;45.508;12.252;2022-08-05T09:15:44;2.88;;;1.23;;
38785;SDS011;24535;45.508;12.252;2022-08-05T09:18:10;2.53;;;1.58;;
38785;SDS011;24535;45.508;12.252;2022-08-05T09:20:36;1.90;;;1.60;;
38785;SDS011;24535;45.508;12.252;2022-08-05T09:23:12;2.67;;;1.50;;
38785;SDS011;24535;45.508;12.252;2022-08-05T09:25:40;3.13;;;1.70;;
38785;SDS011;24535;45.508;12.252;2022-08-05T09:28:11;3.00;;;1.60;;
38785;SDS011;24535;45.508;12.252;2022-08-05T09:31:00;4.80;;;1.73;;
38785;SDS011;24535;45.508;12.252;2022-08-05T09:33:46;12.25;;;2.58;;
38785;SDS011;24535;45.508;12.252;2022-08-05T09:36:13;5.25;;;1.85;;
38785;SDS011;24535;45.508;12.252;2022-08-05T09:39:03;2.50;;;2.00;;
38785;SDS011;24535;45.508;12.252;2022-08-05T09:44:34;2.85;;;2.55;;
38785;SDS011;24535;45.508;12.252;2022-08-05T09:47:26;5.00;;;2.70;;
38785;SDS011;24535;45.508;12.252;2022-08-05T09:49:57;6.10;;;3.15;;
38785;SDS011;24535;45.508;12.252;2022-08-05T09:52:31;6.88;;;3.50;;
38785;SDS011;24535;45.508;12.252;2022-08-05T09:55:14;4.47;;;3.13;;
38785;SDS011;24535;45.508;12.252;2022-08-05T09:57:43;7.50;;;3.17;;
38785;SDS011;24535;45.508;12.252;2022-08-05T10:00:16;11.23;;;3.67;;
38785;SDS011;24535;45.508;12.252;2022-08-05T10:02:45;2.80;;;2.60;;
38785;SDS011;24535;45.508;12.252;2022-08-05T10:05:18;7.70;;;2.50;;
38785;SDS011;24535;45.508;12.252;2022-08-05T10:10:22;8.45;;;3.70;;
38785;SDS011;24535;45.508;12.252;2022-08-05T10:12:50;5.47;;;3.10;;
38785;SDS011;24535;45.508;12.252;2022-08-05T10:18:00;8.13;;;3.33;;
38785;SDS011;24535;45.508;12.252;2022-08-05T10:20:35;3.28;;;2.92;;
38785;SDS011;24535;45.508;12.252;2022-08-05T10:23:17;9.53;;;3.77;;
38785;SDS011;24535;45.508;12.252;2022-08-05T10:25:42;3.92;;;3.10;;
38785;SDS011;24535;45.508;12.252;2022-08-05T10:31:29;7.25;;;2.70;;
38785;SDS011;24535;45.508;12.252;2022-08-05T10:34:02;7.95;;;3.03;;
38785;SDS011;24535;45.508;12.252;2022-08-05T10:36:32;5.75;;;3.17;;
38785;SDS011;24535;45.508;12.252;2022-08-05T10:38:59;5.85;;;2.95;;
38785;SDS011;24535;45.508;12.252;2022-08-05T10:41:33;3.97;;;2.55;;
38785;SDS011;24535;45.508;12.252;2022-08-05T10:47:15;6.90;;;3.33;;
38785;SDS011;24535;45.508;12.252;2022-08-05T10:52:39;2.85;;;2.60;;
38785;SDS011;24535;45.508;12.252;2022-08-05T11:00:25;3.57;;;2.90;;
38785;SDS011;24535;45.508;12.252;2022-08-05T11:06:06;4.13;;;1.98;;
38785;SDS011;24535;45.508;12.252;2022-08-05T11:08:34;5.78;;;2.42;;
38785;SDS011;24535;45.508;12.252;2022-08-05T11:14:01;4.72;;;2.42;;
38785;SDS011;24535;45.508;12.252;2022-08-05T11:16:28;5.47;;;2.50;;
38785;SDS011;24535;45.508;12.252;2022-08-05T11:36:00;3.35;;;1.90;;
38785;SDS011;24535;45.508;12.252;2022-08-05T11:41:10;4.22;;;2.42;;
38785;SDS011;24535;45.508;12.252;2022-08-05T11:44:00;4.38;;;2.33;;
38785;SDS011;24535;45.508;12.252;2022-08-05T11:46:52;2.17;;;1.98;;
38785;SDS011;24535;45.508;12.252;2022-08-05T11:49:19;4.22;;;2.33;;
38785;SDS011;24535;45.508;12.252;2022-08-05T11:51:47;4.00;;;1.93;;
38785;SDS011;24535;45.508;12.252;2022-08-05T12:03:55;2.88;;;1.85;;
38785;SDS011;24535;45.508;12.252;2022-08-05T12:38:31;2.80;;;1.63;;
38785;SDS011;24535;45.508;12.252;2022-08-05T12:49:38;1.63;;;1.35;;
38785;SDS011;24535;45.508;12.252;2022-08-05T12:52:25;2.40;;;1.40;;
38785;SDS011;24535;45.508;12.252;2022-08-05T13:03:09;1.73;;;1.27;;
38785;SDS011;24535;45.508;12.252;2022-08-05T13:08:44;1.40;;;1.30;;
38785;SDS011;24535;45.508;12.252;2022-08-05T13:11:31;2.28;;;1.33;;
38785;SDS011;24535;45.508;12.252;2022-08-05T13:16:54;2.40;;;1.45;;
38785;SDS011;24535;45.508;12.252;2022-08-05T13:20:14;2.13;;;1.20;;
38785;SDS011;24535;45.508;12.252;2022-08-05T13:22:45;2.85;;;1.10;;
38785;SDS011;24535;45.508;12.252;2022-08-05T13:25:37;1.17;;;0.98;;
38785;SDS011;24535;45.508;12.252;2022-08-05T13:54:56;2.35;;;1.35;;
38785;SDS011;24535;45.508;12.252;2022-08-05T13:57:25;2.47;;;1.30;;
38785;SDS011;24535;45.508;12.252;2022-08-05T14:02:56;2.17;;;1.33;;
38785;SDS011;24535;45.508;12.252;2022-08-05T14:05:21;1.55;;;1.20;;
38785;SDS011;24535;45.508;12.252;2022-08-05T14:07:47;2.30;;;1.02;;
38785;SDS011;24535;45.508;12.252;2022-08-05T14:10:19;1.65;;;1.25;;
38785;SDS011;24535;45.508;12.252;2022-08-05T14:12:47;1.70;;;1.20;;
38785;SDS011;24535;45.508;12.252;2022-08-05T14:15:12;1.95;;;1.58;;
38785;SDS011;24535;45.508;12.252;2022-08-05T14:17:38;1.98;;;1.20;;
38785;SDS011;24535;45.508;12.252;2022-08-05T14:20:05;2.38;;;1.33;;
38785;SDS011;24535;45.508;12.252;2022-08-05T14:22:31;1.98;;;1.25;;
38785;SDS011;24535;45.508;12.252;2022-08-05T14:25:12;1.48;;;1.00;;
38785;SDS011;24535;45.508;12.252;2022-08-05T14:33:40;2.78;;;1.00;;
38785;SDS011;24535;45.508;12.252;2022-08-05T14:36:05;1.27;;;1.17;;
38785;SDS011;24535;45.508;12.252;2022-08-05T14:38:31;1.45;;;1.33;;
38785;SDS011;24535;45.508;12.252;2022-08-05T14:40:57;1.90;;;1.20;;
38785;SDS011;24535;45.508;12.252;2022-08-05T14:43:22;1.85;;;1.20;;
38785;SDS011;24535;45.508;12.252;2022-08-05T14:45:48;2.40;;;1.10;;
38785;SDS011;24535;45.508;12.252;2022-08-05T14:53:22;1.35;;;1.00;;
38785;SDS011;24535;45.508;12.252;2022-08-05T14:55:48;4.65;;;0.98;;
38785;SDS011;24535;45.508;12.252;2022-08-05T14:58:13;1.65;;;0.93;;
38785;SDS011;24535;45.508;12.252;2022-08-05T15:00:42;1.38;;;0.93;;
38785;SDS011;24535;45.508;12.252;2022-08-05T15:03:07;1.67;;;1.15;;
38785;SDS011;24535;45.508;12.252;2022-08-05T15:05:33;1.25;;;1.10;;
38785;SDS011;24535;45.508;12.252;2022-08-05T15:07:59;2.55;;;0.73;;
38785;SDS011;24535;45.508;12.252;2022-08-05T15:10:26;1.85;;;1.20;;
38785;SDS011;24535;45.508;12.252;2022-08-05T15:12:52;1.95;;;1.25;;
38785;SDS011;24535;45.508;12.252;2022-08-05T15:15:20;1.40;;;1.30;;
38785;SDS011;24535;45.508;12.252;2022-08-05T15:17:46;1.13;;;0.95;;
38785;SDS011;24535;45.508;12.252;2022-08-05T15:20:12;1.10;;;1.00;;
38785;SDS011;24535;45.508;12.252;2022-08-05T15:22:37;2.65;;;1.15;;
38785;SDS011;24535;45.508;12.252;2022-08-05T15:25:06;1.35;;;1.25;;
38785;SDS011;24535;45.508;12.252;2022-08-05T15:27:32;2.10;;;1.15;;
38785;SDS011;24535;45.508;12.252;2022-08-05T15:29:58;1.83;;;0.88;;
38785;SDS011;24535;45.508;12.252;2022-08-05T15:35:26;2.90;;;1.10;;
38785;SDS011;24535;45.508;12.252;2022-08-05T15:40:44;1.73;;;1.00;;
38785;SDS011;24535;45.508;12.252;2022-08-05T15:43:25;2.25;;;0.90;;
38785;SDS011;24535;45.508;12.252;2022-08-05T15:45:51;2.05;;;0.95;;
38785;SDS011;24535;45.508;12.252;2022-08-05T15:48:32;3.60;;;1.00;;
38785;SDS011;24535;45.508;12.252;2022-08-05T15:51:00;3.80;;;1.00;;
38785;SDS011;24535;45.508;12.252;2022-08-05T15:56:47;1.10;;;0.73;;
38785;SDS011;24535;45.508;12.252;2022-08-05T15:59:13;3.33;;;1.17;;
38785;SDS011;24535;45.508;12.252;2022-08-05T16:01:39;0.98;;;0.80;;
38785;SDS011;24535;45.508;12.252;2022-08-05T16:07:33;1.25;;;0.88;;
38785;SDS011;24535;45.508;12.252;2022-08-05T16:09:59;2.15;;;1.00;;
38785;SDS011;24535;45.508;12.252;2022-08-05T16:12:24;1.20;;;0.77;;
38785;SDS011;24535;45.508;12.252;2022-08-05T16:20:59;1.30;;;0.95;;
38785;SDS011;24535;45.508;12.252;2022-08-05T16:23:29;3.70;;;1.10;;
38785;SDS011;24535;45.508;12.252;2022-08-05T16:26:04;2.35;;;1.13;;
38785;SDS011;24535;45.508;12.252;2022-08-05T16:28:34;2.30;;;1.02;;
38785;SDS011;24535;45.508;12.252;2022-08-05T16:31:01;1.20;;;0.90;;
38785;SDS011;24535;45.508;12.252;2022-08-05T16:33:27;2.40;;;1.20;;
38785;SDS011;24535;45.508;12.252;2022-08-05T16:35:56;1.05;;;0.90;;
38785;SDS011;24535;45.508;12.252;2022-08-05T16:38:27;2.03;;;0.80;;
38785;SDS011;24535;45.508;12.252;2022-08-05T16:40:53;1.23;;;0.70;;
38785;SDS011;24535;45.508;12.252;2022-08-05T16:43:29;1.65;;;0.90;;
38785;SDS011;24535;45.508;12.252;2022-08-05T16:45:57;1.88;;;0.70;;
38785;SDS011;24535;45.508;12.252;2022-08-05T16:48:23;1.58;;;1.17;;
38785;SDS011;24535;45.508;12.252;2022-08-05T16:50:52;2.88;;;0.95;;
38785;SDS011;24535;45.508;12.252;2022-08-05T16:53:18;1.45;;;0.80;;
38785;SDS011;24535;45.508;12.252;2022-08-05T16:55:43;2.30;;;0.80;;
38785;SDS011;24535;45.508;12.252;2022-08-05T16:58:09;1.30;;;0.93;;
38785;SDS011;24535;45.508;12.252;2022-08-05T17:00:37;1.67;;;0.82;;
38785;SDS011;24535;45.508;12.252;2022-08-05T17:03:06;1.27;;;0.90;;
38785;SDS011;24535;45.508;12.252;2022-08-05T17:05:31;1.60;;;0.93;;
38785;SDS011;24535;45.508;12.252;2022-08-05T17:07:57;1.25;;;0.85;;
38785;SDS011;24535;45.508;12.252;2022-08-05T17:10:22;1.15;;;0.95;;
38785;SDS011;24535;45.508;12.252;2022-08-05T17:12:48;1.35;;;1.08;;
38785;SDS011;24535;45.508;12.252;2022-08-05T17:15:14;1.20;;;0.98;;
38785;SDS011;24535;45.508;12.252;2022-08-05T17:17:40;1.60;;;0.90;;
38785;SDS011;24535;45.508;12.252;2022-08-05T17:20:09;4.05;;;1.20;;
38785;SDS011;24535;45.508;12.252;2022-08-05T17:22:35;1.35;;;0.95;;
38785;SDS011;24535;45.508;12.252;2022-08-05T17:25:02;3.13;;;1.30;;
38785;SDS011;24535;45.508;12.252;2022-08-05T17:27:28;3.45;;;1.00;;
38785;SDS011;24535;45.508;12.252;2022-08-05T17:29:57;6.50;;;2.20;;
38785;SDS011;24535;45.508;12.252;2022-08-05T17:32:29;3.50;;;1.30;;
38785;SDS011;24535;45.508;12.252;2022-08-05T17:34:55;2.53;;;1.17;;
38785;SDS011;24535;45.508;12.252;2022-08-05T17:37:20;1.88;;;1.10;;
38785;SDS011;24535;45.508;12.252;2022-08-05T17:39:45;1.60;;;1.20;;
38785;SDS011;24535;45.508;12.252;2022-08-05T17:42:17;1.23;;;1.08;;
38785;SDS011;24535;45.508;12.252;2022-08-05T17:44:42;2.15;;;1.83;;
38785;SDS011;24535;45.508;12.252;2022-08-05T17:47:11;2.75;;;1.70;;
38785;SDS011;24535;45.508;12.252;2022-08-05T17:49:41;3.28;;;1.40;;
38785;SDS011;24535;45.508;12.252;2022-08-05T17:52:07;1.55;;;1.05;;
38785;SDS011;24535;45.508;12.252;2022-08-05T17:54:32;1.95;;;1.40;;
38785;SDS011;24535;45.508;12.252;2022-08-05T18:00:11;1.90;;;1.33;;
38785;SDS011;24535;45.508;12.252;2022-08-05T18:02:37;2.10;;;1.40;;
38785;SDS011;24535;45.508;12.252;2022-08-05T18:05:02;2.17;;;1.55;;
38785;SDS011;24535;45.508;12.252;2022-08-05T18:07:29;2.97;;;1.58;;
38785;SDS011;24535;45.508;12.252;2022-08-05T18:09:55;2.55;;;1.80;;
38785;SDS011;24535;45.508;12.252;2022-08-05T18:12:20;3.42;;;1.48;;
38785;SDS011;24535;45.508;12.252;2022-08-05T18:18:01;3.95;;;1.65;;
38785;SDS011;24535;45.508;12.252;2022-08-05T18:20:27;3.78;;;1.55;;
38785;SDS011;24535;45.508;12.252;2022-08-05T18:22:58;1.98;;;1.60;;
38785;SDS011;24535;45.508;12.252;2022-08-05T18:25:24;1.60;;;1.48;;
38785;SDS011;24535;45.508;12.252;2022-08-05T18:27:58;2.13;;;1.48;;
38785;SDS011;24535;45.508;12.252;2022-08-05T18:30:24;1.70;;;1.58;;
38785;SDS011;24535;45.508;12.252;2022-08-05T18:32:50;2.30;;;1.40;;
38785;SDS011;24535;45.508;12.252;2022-08-05T18:38:06;2.08;;;1.50;;
38785;SDS011;24535;45.508;12.252;2022-08-05T18:40:32;3.15;;;1.50;;
38785;SDS011;24535;45.508;12.252;2022-08-05T18:42:58;1.40;;;1.30;;
38785;SDS011;24535;45.508;12.252;2022-08-05T18:45:24;2.67;;;1.63;;
38785;SDS011;24535;45.508;12.252;2022-08-05T18:50:25;4.10;;;1.40;;
38785;SDS011;24535;45.508;12.252;2022-08-05T18:53:09;2.53;;;1.10;;
38785;SDS011;24535;45.508;12.252;2022-08-05T18:55:34;1.30;;;1.15;;
38785;SDS011;24535;45.508;12.252;2022-08-05T18:58:00;1.48;;;1.35;;
38785;SDS011;24535;45.508;12.252;2022-08-05T19:00:25;3.05;;;1.05;;
38785;SDS011;24535;45.508;12.252;2022-08-05T19:02:50;1.25;;;1.15;;
38785;SDS011;24535;45.508;12.252;2022-08-05T19:05:17;1.52;;;1.30;;